sensor_id;sensor_type;location;lat;lon;timestamp;pressure;altitude;pressure_sealevel;temperature;humidity
3178;BME280;38141;42.666;23.344;2023-02-18T00:01:34;95402.25;;;4.75;69.16
3178;BME280;38141;42.666;23.344;2023-02-18T00:04:00;95393.94;;;4.47;70.17
3178;BME280;38141;42.666;23.344;2023-02-18T00:06:29;95358.56;;;4.13;70.07
3178;BME280;38141;42.666;23.344;2023-02-18T00:08:56;95360.00;;;4.10;70.69
3178;BME280;38141;42.666;23.344;2023-02-18T00:11:27;95329.75;;;4.10;74.13
3178;BME280;38141;42.666;23.344;2023-02-18T00:13:56;95386.63;;;4.57;73.72
3178;BME280;38141;42.666;23.344;2023-02-18T00:16:26;95387.66;;;4.64;72.84
3178;BME280;38141;42.666;23.344;2023-02-18T00:18:54;95382.44;;;4.68;72.85
3178;BME280;38141;42.666;23.344;2023-02-18T00:21:22;95375.69;;;4.82;73.22
3178;BME280;38141;42.666;23.344;2023-02-18T00:23:49;95355.22;;;4.45;71.96
3178;BME280;38141;42.666;23.344;2023-02-18T00:26:17;95364.22;;;4.61;72.52
3178;BME280;38141;42.666;23.344;2023-02-18T00:28:45;95373.69;;;4.38;72.26
3178;BME280;38141;42.666;23.344;2023-02-18T00:31:16;95358.00;;;4.48;72.11
3178;BME280;38141;42.666;23.344;2023-02-18T00:33:44;95350.41;;;4.51;72.70
3178;BME280;38141;42.666;23.344;2023-02-18T00:36:14;95354.50;;;4.27;73.00
3178;BME280;38141;42.666;23.344;2023-02-18T00:38:43;95322.91;;;4.21;73.31
3178;BME280;38141;42.666;23.344;2023-02-18T00:41:11;95346.84;;;4.26;73.44
3178;BME280;38141;42.666;23.344;2023-02-18T00:43:39;95313.94;;;3.96;74.36
3178;BME280;38141;42.666;23.344;2023-02-18T00:46:06;95332.28;;;4.35;75.85
3178;BME280;38141;42.666;23.344;2023-02-18T00:48:33;95340.94;;;4.53;71.61
3178;BME280;38141;42.666;23.344;2023-02-18T00:51:03;95345.03;;;4.09;72.49
3178;BME280;38141;42.666;23.344;2023-02-18T00:53:30;95338.66;;;4.22;77.32
3178;BME280;38141;42.666;23.344;2023-02-18T00:55:57;95331.63;;;4.18;75.04
3178;BME280;38141;42.666;23.344;2023-02-18T00:58:24;95347.88;;;4.13;73.37
3178;BME280;38141;42.666;23.344;2023-02-18T01:00:51;95325.97;;;3.90;77.96
3178;BME280;38141;42.666;23.344;2023-02-18T01:03:19;95343.31;;;4.04;80.62
3178;BME280;38141;42.666;23.344;2023-02-18T01:05:47;95341.59;;;4.09;81.03
3178;BME280;38141;42.666;23.344;2023-02-18T01:08:17;95305.38;;;3.82;78.46
3178;BME280;38141;42.666;23.344;2023-02-18T01:10:46;95341.31;;;4.01;80.60
3178;BME280;38141;42.666;23.344;2023-02-18T01:13:14;95334.13;;;3.93;77.66
3178;BME280;38141;42.666;23.344;2023-02-18T01:15:42;95338.75;;;3.84;77.24
3178;BME280;38141;42.666;23.344;2023-02-18T01:18:10;95348.97;;;3.82;81.19
3178;BME280;38141;42.666;23.344;2023-02-18T01:20:39;95339.06;;;3.83;84.20
3178;BME280;38141;42.666;23.344;2023-02-18T01:23:07;95324.94;;;3.74;87.06
3178;BME280;38141;42.666;23.344;2023-02-18T01:25:36;95211.38;;;3.12;85.95
3178;BME280;38141;42.666;23.344;2023-02-18T01:28:04;95286.00;;;3.55;86.34
3178;BME280;38141;42.666;23.344;2023-02-18T01:30:31;95223.06;;;3.29;86.30
3178;BME280;38141;42.666;23.344;2023-02-18T01:32:58;95303.72;;;3.98;82.29
3178;BME280;38141;42.666;23.344;2023-02-18T01:35:25;95327.56;;;4.12;81.69
3178;BME280;38141;42.666;23.344;2023-02-18T01:37:52;95328.06;;;4.05;80.81
3178;BME280;38141;42.666;23.344;2023-02-18T01:40:22;95336.19;;;4.17;81.13
3178;BME280;38141;42.666;23.344;2023-02-18T01:42:50;95325.50;;;3.88;79.17
3178;BME280;38141;42.666;23.344;2023-02-18T01:45:48;95335.28;;;3.84;80.58
3178;BME280;38141;42.666;23.344;2023-02-18T01:48:17;95360.09;;;3.93;82.45
3178;BME280;38141;42.666;23.344;2023-02-18T01:50:53;95345.19;;;3.83;79.81
3178;BME280;38141;42.666;23.344;2023-02-18T01:53:26;95347.03;;;3.62;80.46
3178;BME280;38141;42.666;23.344;2023-02-18T01:55:56;95344.97;;;3.21;81.04
3178;BME280;38141;42.666;23.344;2023-02-18T01:58:25;95274.94;;;2.98;85.61
3178;BME280;38141;42.666;23.344;2023-02-18T02:00:52;95355.53;;;3.55;85.82
3178;BME280;38141;42.666;23.344;2023-02-18T02:03:19;95353.34;;;3.57;84.37
3178;BME280;38141;42.666;23.344;2023-02-18T02:05:46;95350.09;;;3.43;85.58
3178;BME280;38141;42.666;23.344;2023-02-18T02:08:13;95334.50;;;3.07;84.48
3178;BME280;38141;42.666;23.344;2023-02-18T02:10:58;95331.00;;;3.16;88.36
3178;BME280;38141;42.666;23.344;2023-02-18T02:13:49;95334.06;;;3.43;91.37
3178;BME280;38141;42.666;23.344;2023-02-18T02:16:27;95334.63;;;3.57;90.26
3178;BME280;38141;42.666;23.344;2023-02-18T02:19:03;95336.72;;;3.43;90.94
3178;BME280;38141;42.666;23.344;2023-02-18T02:22:01;95339.28;;;3.69;89.66
3178;BME280;38141;42.666;23.344;2023-02-18T02:27:44;95325.91;;;3.40;88.32
3178;BME280;38141;42.666;23.344;2023-02-18T02:30:43;95342.59;;;3.66;88.62
3178;BME280;38141;42.666;23.344;2023-02-18T02:33:36;95336.81;;;3.55;88.79
3178;BME280;38141;42.666;23.344;2023-02-18T02:36:12;95323.13;;;3.19;88.17
3178;BME280;38141;42.666;23.344;2023-02-18T02:38:46;95325.56;;;3.41;88.41
3178;BME280;38141;42.666;23.344;2023-02-18T02:41:23;95327.34;;;3.29;88.40
3178;BME280;38141;42.666;23.344;2023-02-18T02:44:04;95322.13;;;3.32;89.13
3178;BME280;38141;42.666;23.344;2023-02-18T02:46:38;95313.31;;;3.32;90.78
3178;BME280;38141;42.666;23.344;2023-02-18T02:49:12;95307.50;;;3.38;88.89
3178;BME280;38141;42.666;23.344;2023-02-18T02:51:46;95308.22;;;3.47;89.67
3178;BME280;38141;42.666;23.344;2023-02-18T02:54:18;95283.91;;;3.32;90.56
3178;BME280;38141;42.666;23.344;2023-02-18T02:56:45;95325.56;;;3.41;89.07
3178;BME280;38141;42.666;23.344;2023-02-18T02:59:15;95313.69;;;3.22;90.10
3178;BME280;38141;42.666;23.344;2023-02-18T03:01:53;95299.47;;;2.92;91.77
3178;BME280;38141;42.666;23.344;2023-02-18T03:07:32;95333.97;;;3.14;93.21
3178;BME280;38141;42.666;23.344;2023-02-18T03:10:18;95341.31;;;3.34;92.24
3178;BME280;38141;42.666;23.344;2023-02-18T03:12:52;95323.34;;;3.43;89.32
3178;BME280;38141;42.666;23.344;2023-02-18T03:15:29;95331.34;;;3.52;88.60
3178;BME280;38141;42.666;23.344;2023-02-18T03:18:02;95311.47;;;3.24;86.45
3178;BME280;38141;42.666;23.344;2023-02-18T03:20:34;95313.13;;;2.99;90.11
3178;BME280;38141;42.666;23.344;2023-02-18T03:23:07;95341.03;;;3.19;91.67
3178;BME280;38141;42.666;23.344;2023-02-18T03:25:36;95339.34;;;3.05;90.86
3178;BME280;38141;42.666;23.344;2023-02-18T03:28:07;95340.44;;;3.13;91.20
3178;BME280;38141;42.666;23.344;2023-02-18T03:30:41;95325.41;;;2.83;91.53
3178;BME280;38141;42.666;23.344;2023-02-18T03:33:15;95359.75;;;3.19;91.87
3178;BME280;38141;42.666;23.344;2023-02-18T03:35:43;95377.69;;;3.27;89.89
3178;BME280;38141;42.666;23.344;2023-02-18T03:38:15;95273.19;;;2.39;92.77
3178;BME280;38141;42.666;23.344;2023-02-18T03:40:44;95367.34;;;2.91;93.34
3178;BME280;38141;42.666;23.344;2023-02-18T03:43:11;95371.91;;;2.99;93.58
3178;BME280;38141;42.666;23.344;2023-02-18T03:45:38;95393.78;;;2.84;93.80
3178;BME280;38141;42.666;23.344;2023-02-18T03:48:05;95381.38;;;2.79;94.28
3178;BME280;38141;42.666;23.344;2023-02-18T03:50:32;95369.91;;;2.53;94.32
3178;BME280;38141;42.666;23.344;2023-02-18T03:52:59;95321.66;;;1.89;97.35
3178;BME280;38141;42.666;23.344;2023-02-18T03:55:28;95381.06;;;2.55;98.38
3178;BME280;38141;42.666;23.344;2023-02-18T03:57:54;95389.69;;;2.86;96.89
3178;BME280;38141;42.666;23.344;2023-02-18T04:00:21;95276.31;;;1.98;97.11
3178;BME280;38141;42.666;23.344;2023-02-18T04:02:48;95385.28;;;2.82;99.23
3178;BME280;38141;42.666;23.344;2023-02-18T04:05:16;95376.00;;;2.96;97.03
3178;BME280;38141;42.666;23.344;2023-02-18T04:07:42;95368.97;;;2.66;99.02
3178;BME280;38141;42.666;23.344;2023-02-18T04:10:10;95362.34;;;2.98;99.71
3178;BME280;38141;42.666;23.344;2023-02-18T04:12:38;95360.91;;;3.00;96.54
3178;BME280;38141;42.666;23.344;2023-02-18T04:15:05;95352.09;;;3.08;96.64
3178;BME280;38141;42.666;23.344;2023-02-18T04:17:33;95356.28;;;3.18;94.71
3178;BME280;38141;42.666;23.344;2023-02-18T04:20:00;95355.97;;;3.28;95.73
3178;BME280;38141;42.666;23.344;2023-02-18T04:22:29;95348.16;;;3.06;94.51
3178;BME280;38141;42.666;23.344;2023-02-18T04:24:55;95356.63;;;3.17;94.75
3178;BME280;38141;42.666;23.344;2023-02-18T04:27:23;95345.03;;;3.04;93.98
3178;BME280;38141;42.666;23.344;2023-02-18T04:29:52;95357.94;;;2.93;95.92
3178;BME280;38141;42.666;23.344;2023-02-18T04:32:18;95335.13;;;2.96;97.58
3178;BME280;38141;42.666;23.344;2023-02-18T04:34:45;95338.63;;;2.71;99.92
3178;BME280;38141;42.666;23.344;2023-02-18T04:37:12;95340.66;;;2.74;100.00
3178;BME280;38141;42.666;23.344;2023-02-18T04:39:39;95328.59;;;2.59;100.00
3178;BME280;38141;42.666;23.344;2023-02-18T04:42:06;95331.41;;;2.80;100.00
3178;BME280;38141;42.666;23.344;2023-02-18T04:44:34;95338.72;;;3.00;100.00
3178;BME280;38141;42.666;23.344;2023-02-18T04:47:03;95351.31;;;3.08;97.88
3178;BME280;38141;42.666;23.344;2023-02-18T04:49:30;95340.78;;;3.03;96.55
3178;BME280;38141;42.666;23.344;2023-02-18T04:51:57;95350.13;;;2.71;96.14
3178;BME280;38141;42.666;23.344;2023-02-18T04:54:24;95361.25;;;2.82;97.60
3178;BME280;38141;42.666;23.344;2023-02-18T04:56:51;95347.44;;;2.71;96.13
3178;BME280;38141;42.666;23.344;2023-02-18T04:59:18;95349.97;;;2.67;97.21
3178;BME280;38141;42.666;23.344;2023-02-18T05:01:45;95359.53;;;2.86;99.26
3178;BME280;38141;42.666;23.344;2023-02-18T05:04:15;95369.75;;;2.49;99.44
3178;BME280;38141;42.666;23.344;2023-02-18T05:06:43;95226.25;;;1.60;98.97
3178;BME280;38141;42.666;23.344;2023-02-18T05:09:11;95392.69;;;2.59;100.00
3178;BME280;38141;42.666;23.344;2023-02-18T05:11:38;95331.44;;;2.62;98.88
3178;BME280;38141;42.666;23.344;2023-02-18T05:14:05;95328.13;;;2.48;98.25
3178;BME280;38141;42.666;23.344;2023-02-18T05:16:32;95367.06;;;2.75;98.89
3178;BME280;38141;42.666;23.344;2023-02-18T05:18:59;95366.16;;;2.62;100.00
3178;BME280;38141;42.666;23.344;2023-02-18T05:21:28;95366.13;;;2.80;100.00
3178;BME280;38141;42.666;23.344;2023-02-18T05:23:55;95341.63;;;2.69;99.94
3178;BME280;38141;42.666;23.344;2023-02-18T05:26:22;95339.44;;;2.62;99.31
3178;BME280;38141;42.666;23.344;2023-02-18T05:28:49;95345.41;;;2.42;100.00
3178;BME280;38141;42.666;23.344;2023-02-18T05:31:16;95379.34;;;2.59;100.00
3178;BME280;38141;42.666;23.344;2023-02-18T05:33:43;95364.84;;;2.77;100.00
3178;BME280;38141;42.666;23.344;2023-02-18T05:36:10;95309.13;;;2.67;100.00
3178;BME280;38141;42.666;23.344;2023-02-18T05:38:38;95331.03;;;3.07;98.50
3178;BME280;38141;42.666;23.344;2023-02-18T05:41:05;95331.28;;;3.23;96.78
3178;BME280;38141;42.666;23.344;2023-02-18T05:43:32;95353.00;;;3.68;94.00
3178;BME280;38141;42.666;23.344;2023-02-18T05:46:20;95355.19;;;3.66;94.85
3178;BME280;38141;42.666;23.344;2023-02-18T05:48:47;95355.22;;;3.57;94.40
3178;BME280;38141;42.666;23.344;2023-02-18T05:51:14;95349.03;;;3.36;97.29
3178;BME280;38141;42.666;23.344;2023-02-18T05:53:44;95334.28;;;3.21;97.56
3178;BME280;38141;42.666;23.344;2023-02-18T05:56:11;95363.56;;;3.55;98.26
3178;BME280;38141;42.666;23.344;2023-02-18T05:58:38;95379.19;;;3.83;94.18
3178;BME280;38141;42.666;23.344;2023-02-18T06:01:05;95351.38;;;3.75;89.89
3178;BME280;38141;42.666;23.344;2023-02-18T06:03:32;95325.69;;;3.53;90.69
3178;BME280;38141;42.666;23.344;2023-02-18T06:05:59;95382.91;;;3.99;91.00
3178;BME280;38141;42.666;23.344;2023-02-18T06:08:26;95389.78;;;4.09;89.99
3178;BME280;38141;42.666;23.344;2023-02-18T06:10:54;95343.81;;;4.27;85.52
3178;BME280;38141;42.666;23.344;2023-02-18T06:13:21;95370.16;;;4.67;81.48
3178;BME280;38141;42.666;23.344;2023-02-18T06:15:49;95378.44;;;4.74;80.87
3178;BME280;38141;42.666;23.344;2023-02-18T06:18:17;95385.84;;;4.77;79.59
3178;BME280;38141;42.666;23.344;2023-02-18T06:20:45;95363.47;;;4.93;79.01
3178;BME280;38141;42.666;23.344;2023-02-18T06:23:14;95371.41;;;5.02;77.15
3178;BME280;38141;42.666;23.344;2023-02-18T06:25:41;95364.97;;;5.15;75.69
3178;BME280;38141;42.666;23.344;2023-02-18T06:28:09;95356.72;;;4.87;74.30
3178;BME280;38141;42.666;23.344;2023-02-18T06:30:36;95365.91;;;5.31;72.38
3178;BME280;38141;42.666;23.344;2023-02-18T06:33:03;95281.38;;;5.01;72.28
3178;BME280;38141;42.666;23.344;2023-02-18T06:35:31;95297.97;;;5.40;69.31
3178;BME280;38141;42.666;23.344;2023-02-18T06:37:57;95360.88;;;5.99;68.35
3178;BME280;38141;42.666;23.344;2023-02-18T06:40:24;95349.75;;;5.40;70.83
3178;BME280;38141;42.666;23.344;2023-02-18T06:42:51;95369.28;;;5.41;71.38
3178;BME280;38141;42.666;23.344;2023-02-18T06:45:20;95368.09;;;5.74;71.04
3178;BME280;38141;42.666;23.344;2023-02-18T06:47:47;95364.91;;;5.93;69.67
3178;BME280;38141;42.666;23.344;2023-02-18T06:50:14;95364.13;;;5.93;69.00
3178;BME280;38141;42.666;23.344;2023-02-18T06:52:41;95365.34;;;6.19;69.06
3178;BME280;38141;42.666;23.344;2023-02-18T06:55:09;95364.88;;;6.30;68.11
3178;BME280;38141;42.666;23.344;2023-02-18T06:57:36;95352.06;;;6.51;69.20
3178;BME280;38141;42.666;23.344;2023-02-18T07:00:04;95369.16;;;6.70;67.08
3178;BME280;38141;42.666;23.344;2023-02-18T07:02:32;95356.53;;;6.87;65.91
3178;BME280;38141;42.666;23.344;2023-02-18T07:04:59;95370.06;;;7.02;63.69
3178;BME280;38141;42.666;23.344;2023-02-18T07:07:26;95368.44;;;6.86;64.02
3178;BME280;38141;42.666;23.344;2023-02-18T07:09:53;95356.78;;;7.09;61.66
3178;BME280;38141;42.666;23.344;2023-02-18T07:12:20;95328.75;;;6.95;61.82
3178;BME280;38141;42.666;23.344;2023-02-18T07:14:47;95343.22;;;7.34;59.37
3178;BME280;38141;42.666;23.344;2023-02-18T07:17:13;95351.38;;;7.37;60.29
3178;BME280;38141;42.666;23.344;2023-02-18T07:19:42;95352.00;;;7.46;59.68
3178;BME280;38141;42.666;23.344;2023-02-18T07:22:09;95337.34;;;7.44;58.35
3178;BME280;38141;42.666;23.344;2023-02-18T07:24:36;95320.81;;;7.30;57.60
3178;BME280;38141;42.666;23.344;2023-02-18T07:27:03;95344.13;;;7.53;57.39
3178;BME280;38141;42.666;23.344;2023-02-18T07:29:30;95277.59;;;7.38;57.79
3178;BME280;38141;42.666;23.344;2023-02-18T07:31:56;95343.75;;;8.02;56.28
3178;BME280;38141;42.666;23.344;2023-02-18T07:34:23;95340.09;;;8.10;55.20
3178;BME280;38141;42.666;23.344;2023-02-18T07:36:52;95343.06;;;8.56;59.09
3178;BME280;38141;42.666;23.344;2023-02-18T07:39:19;95361.97;;;8.75;54.95
3178;BME280;38141;42.666;23.344;2023-02-18T07:41:45;95377.97;;;8.48;54.97
3178;BME280;38141;42.666;23.344;2023-02-18T07:44:13;95367.44;;;8.43;54.45
3178;BME280;38141;42.666;23.344;2023-02-18T07:46:40;95370.91;;;8.79;53.65
3178;BME280;38141;42.666;23.344;2023-02-18T07:49:08;95376.16;;;8.91;53.43
3178;BME280;38141;42.666;23.344;2023-02-18T07:51:35;95369.00;;;8.99;51.81
3178;BME280;38141;42.666;23.344;2023-02-18T07:54:04;95388.13;;;9.93;50.78
3178;BME280;38141;42.666;23.344;2023-02-18T07:56:31;95374.84;;;10.30;50.38
3178;BME280;38141;42.666;23.344;2023-02-18T07:58:58;95378.88;;;10.69;49.01
3178;BME280;38141;42.666;23.344;2023-02-18T08:01:25;95370.41;;;11.01;48.35
3178;BME280;38141;42.666;23.344;2023-02-18T08:03:52;95374.53;;;11.21;47.27
3178;BME280;38141;42.666;23.344;2023-02-18T08:06:21;95359.31;;;11.13;46.80
3178;BME280;38141;42.666;23.344;2023-02-18T08:08:51;95329.09;;;11.81;45.76
3178;BME280;38141;42.666;23.344;2023-02-18T08:11:19;95367.22;;;12.50;44.02
3178;BME280;38141;42.666;23.344;2023-02-18T08:13:46;95359.94;;;13.41;43.02
3178;BME280;38141;42.666;23.344;2023-02-18T08:16:13;95325.47;;;14.19;41.00
3178;BME280;38141;42.666;23.344;2023-02-18T08:18:40;95343.38;;;14.48;40.80
3178;BME280;38141;42.666;23.344;2023-02-18T08:21:07;95357.34;;;14.50;40.56
3178;BME280;38141;42.666;23.344;2023-02-18T08:23:37;95342.97;;;15.69;37.99
3178;BME280;38141;42.666;23.344;2023-02-18T08:26:04;95343.38;;;17.04;36.04
3178;BME280;38141;42.666;23.344;2023-02-18T08:28:33;95347.63;;;16.75;35.96
3178;BME280;38141;42.666;23.344;2023-02-18T08:31:00;95359.84;;;16.56;35.92
3178;BME280;38141;42.666;23.344;2023-02-18T08:33:28;95355.44;;;16.25;36.52
3178;BME280;38141;42.666;23.344;2023-02-18T08:35:55;95346.50;;;14.40;38.84
3178;BME280;38141;42.666;23.344;2023-02-18T08:38:22;95349.19;;;14.04;39.99
3178;BME280;38141;42.666;23.344;2023-02-18T08:40:49;95349.88;;;13.55;40.57
3178;BME280;38141;42.666;23.344;2023-02-18T08:43:17;95328.97;;;13.80;39.49
3178;BME280;38141;42.666;23.344;2023-02-18T08:45:45;95271.09;;;13.80;39.52
3178;BME280;38141;42.666;23.344;2023-02-18T08:48:12;95340.25;;;13.90;40.93
3178;BME280;38141;42.666;23.344;2023-02-18T08:50:40;95351.88;;;13.90;41.09
3178;BME280;38141;42.666;23.344;2023-02-18T08:53:07;95349.16;;;13.76;41.27
3178;BME280;38141;42.666;23.344;2023-02-18T08:55:35;95359.56;;;13.42;41.20
3178;BME280;38141;42.666;23.344;2023-02-18T08:58:05;95351.84;;;13.72;40.38
3178;BME280;38141;42.666;23.344;2023-02-18T09:00:34;95355.38;;;13.84;40.14
3178;BME280;38141;42.666;23.344;2023-02-18T09:03:02;95354.56;;;13.69;40.79
3178;BME280;38141;42.666;23.344;2023-02-18T09:05:29;95360.47;;;14.27;39.64
3178;BME280;38141;42.666;23.344;2023-02-18T09:07:56;95354.97;;;14.88;39.01
3178;BME280;38141;42.666;23.344;2023-02-18T09:10:23;95343.72;;;14.68;39.30
3178;BME280;38141;42.666;23.344;2023-02-18T09:12:50;95356.09;;;14.97;38.58
3178;BME280;38141;42.666;23.344;2023-02-18T09:15:17;95356.50;;;15.83;37.59
3178;BME280;38141;42.666;23.344;2023-02-18T09:17:44;95348.13;;;16.11;37.09
3178;BME280;38141;42.666;23.344;2023-02-18T09:20:12;95350.53;;;17.28;35.27
3178;BME280;38141;42.666;23.344;2023-02-18T09:22:39;95346.66;;;17.56;35.35
3178;BME280;38141;42.666;23.344;2023-02-18T09:25:06;95363.88;;;18.14;34.37
3178;BME280;38141;42.666;23.344;2023-02-18T09:27:33;95331.84;;;20.15;31.17
3178;BME280;38141;42.666;23.344;2023-02-18T09:30:00;95347.88;;;20.81;30.62
3178;BME280;38141;42.666;23.344;2023-02-18T09:32:27;95348.72;;;22.57;28.70
3178;BME280;38141;42.666;23.344;2023-02-18T09:34:54;95335.16;;;25.58;25.75
3178;BME280;38141;42.666;23.344;2023-02-18T09:37:22;95332.84;;;25.11;25.30
3178;BME280;38141;42.666;23.344;2023-02-18T09:39:49;95311.47;;;23.21;27.10
3178;BME280;38141;42.666;23.344;2023-02-18T09:42:17;95329.72;;;23.06;26.93
3178;BME280;38141;42.666;23.344;2023-02-18T09:44:47;95318.53;;;25.58;25.06
3178;BME280;38141;42.666;23.344;2023-02-18T09:47:17;95323.00;;;24.92;25.39
3178;BME280;38141;42.666;23.344;2023-02-18T09:49:47;95326.28;;;23.36;27.14
3178;BME280;38141;42.666;23.344;2023-02-18T09:52:19;95273.13;;;21.95;28.04
3178;BME280;38141;42.666;23.344;2023-02-18T09:54:50;95328.47;;;22.26;28.29
3178;BME280;38141;42.666;23.344;2023-02-18T09:57:23;95333.50;;;20.61;29.71
3178;BME280;38141;42.666;23.344;2023-02-18T09:59:57;95337.44;;;19.36;31.16
3178;BME280;38141;42.666;23.344;2023-02-18T10:02:26;95320.94;;;18.77;32.17
3178;BME280;38141;42.666;23.344;2023-02-18T10:04:54;95307.53;;;18.36;32.62
3178;BME280;38141;42.666;23.344;2023-02-18T10:07:25;95319.09;;;18.24;32.54
3178;BME280;38141;42.666;23.344;2023-02-18T10:09:55;95304.22;;;18.48;32.70
3178;BME280;38141;42.666;23.344;2023-02-18T10:12:25;95309.59;;;19.38;31.75
3178;BME280;38141;42.666;23.344;2023-02-18T10:14:53;95312.69;;;19.60;31.80
3178;BME280;38141;42.666;23.344;2023-02-18T10:17:36;95300.75;;;20.02;30.76
3178;BME280;38141;42.666;23.344;2023-02-18T10:20:03;95175.81;;;19.42;30.60
3178;BME280;38141;42.666;23.344;2023-02-18T10:22:30;95310.66;;;20.48;30.15
3178;BME280;38141;42.666;23.344;2023-02-18T10:25:01;95298.16;;;20.60;29.61
3178;BME280;38141;42.666;23.344;2023-02-18T10:27:31;95289.66;;;21.28;29.46
3178;BME280;38141;42.666;23.344;2023-02-18T10:30:02;95276.00;;;20.67;29.54
3178;BME280;38141;42.666;23.344;2023-02-18T10:32:36;95290.22;;;22.02;28.11
3178;BME280;38141;42.666;23.344;2023-02-18T10:35:14;95286.16;;;21.40;29.10
3178;BME280;38141;42.666;23.344;2023-02-18T10:37:53;95291.41;;;21.89;28.51
3178;BME280;38141;42.666;23.344;2023-02-18T10:40:29;95276.28;;;21.55;29.16
3178;BME280;38141;42.666;23.344;2023-02-18T10:43:09;95268.66;;;22.35;28.05
3178;BME280;38141;42.666;23.344;2023-02-18T10:45:44;95267.22;;;22.43;27.79
3178;BME280;38141;42.666;23.344;2023-02-18T10:48:24;95259.41;;;22.29;27.80
3178;BME280;38141;42.666;23.344;2023-02-18T10:50:54;95265.19;;;21.97;28.07
3178;BME280;38141;42.666;23.344;2023-02-18T10:53:35;95225.06;;;21.96;28.28
3178;BME280;38141;42.666;23.344;2023-02-18T10:56:05;95249.41;;;23.13;27.17
3178;BME280;38141;42.666;23.344;2023-02-18T10:58:34;95254.06;;;23.69;26.89
3178;BME280;38141;42.666;23.344;2023-02-18T11:01:03;95250.94;;;24.38;26.07
3178;BME280;38141;42.666;23.344;2023-02-18T11:03:39;95230.34;;;23.89;25.72
3178;BME280;38141;42.666;23.344;2023-02-18T11:06:17;95235.09;;;23.05;26.99
3178;BME280;38141;42.666;23.344;2023-02-18T11:08:47;95238.91;;;22.30;27.67
3178;BME280;38141;42.666;23.344;2023-02-18T11:11:20;95193.44;;;20.83;28.44
3178;BME280;38141;42.666;23.344;2023-02-18T11:13:52;95196.50;;;21.77;28.18
3178;BME280;38141;42.666;23.344;2023-02-18T11:16:21;95219.31;;;22.15;27.27
3178;BME280;38141;42.666;23.344;2023-02-18T11:18:49;95203.84;;;22.18;27.74
3178;BME280;38141;42.666;23.344;2023-02-18T11:21:23;95214.31;;;22.23;27.47
3178;BME280;38141;42.666;23.344;2023-02-18T11:23:53;95203.63;;;22.25;27.50
3178;BME280;38141;42.666;23.344;2023-02-18T11:26:26;95195.84;;;22.45;27.27
3178;BME280;38141;42.666;23.344;2023-02-18T11:28:57;95188.69;;;22.91;26.65
3178;BME280;38141;42.666;23.344;2023-02-18T11:31:34;95188.91;;;22.41;27.21
3178;BME280;38141;42.666;23.344;2023-02-18T11:34:04;95177.72;;;22.57;27.12
3178;BME280;38141;42.666;23.344;2023-02-18T11:36:33;95173.16;;;23.07;26.95
3178;BME280;38141;42.666;23.344;2023-02-18T11:39:02;95165.47;;;23.01;26.84
3178;BME280;38141;42.666;23.344;2023-02-18T11:41:34;95150.50;;;23.12;26.02
3178;BME280;38141;42.666;23.344;2023-02-18T11:44:04;95151.00;;;22.32;26.46
3178;BME280;38141;42.666;23.344;2023-02-18T11:46:33;95153.22;;;22.81;26.52
3178;BME280;38141;42.666;23.344;2023-02-18T11:49:20;95144.78;;;22.41;26.40
3178;BME280;38141;42.666;23.344;2023-02-18T11:51:48;95142.59;;;22.36;26.57
3178;BME280;38141;42.666;23.344;2023-02-18T11:54:24;95138.97;;;22.04;26.57
3178;BME280;38141;42.666;23.344;2023-02-18T11:56:58;95139.59;;;21.61;27.13
3178;BME280;38141;42.666;23.344;2023-02-18T11:59:26;95127.81;;;22.42;27.14
3178;BME280;38141;42.666;23.344;2023-02-18T12:01:59;95131.13;;;23.02;26.48
3178;BME280;38141;42.666;23.344;2023-02-18T12:04:29;95110.03;;;22.65;26.60
3178;BME280;38141;42.666;23.344;2023-02-18T12:07:07;95091.63;;;22.40;26.91
3178;BME280;38141;42.666;23.344;2023-02-18T12:09:42;95108.38;;;22.46;26.21
3178;BME280;38141;42.666;23.344;2023-02-18T12:12:15;95103.50;;;21.81;26.48
3178;BME280;38141;42.666;23.344;2023-02-18T12:14:43;95094.94;;;22.13;26.02
3178;BME280;38141;42.666;23.344;2023-02-18T12:17:28;95107.59;;;21.77;26.49
3178;BME280;38141;42.666;23.344;2023-02-18T12:20:29;95097.91;;;22.19;26.67
3178;BME280;38141;42.666;23.344;2023-02-18T12:23:09;95106.16;;;22.62;26.37
3178;BME280;38141;42.666;23.344;2023-02-18T12:25:43;95104.94;;;22.85;26.64
3178;BME280;38141;42.666;23.344;2023-02-18T12:28:24;95100.22;;;22.86;26.41
3178;BME280;38141;42.666;23.344;2023-02-18T12:31:17;95094.09;;;22.91;26.98
3178;BME280;38141;42.666;23.344;2023-02-18T12:34:00;95093.47;;;22.65;27.68
3178;BME280;38141;42.666;23.344;2023-02-18T12:36:44;95086.81;;;22.53;27.96
3178;BME280;38141;42.666;23.344;2023-02-18T12:39:26;95088.59;;;21.91;28.41
3178;BME280;38141;42.666;23.344;2023-02-18T12:42:14;95068.63;;;22.34;28.14
3178;BME280;38141;42.666;23.344;2023-02-18T12:44:58;95080.47;;;22.66;28.78
3178;BME280;38141;42.666;23.344;2023-02-18T12:47:42;95068.31;;;22.63;28.17
3178;BME280;38141;42.666;23.344;2023-02-18T12:50:43;95066.44;;;21.60;28.76
3178;BME280;38141;42.666;23.344;2023-02-18T12:53:27;95056.91;;;21.02;29.38
3178;BME280;38141;42.666;23.344;2023-02-18T12:56:07;95064.72;;;21.41;28.32
3178;BME280;38141;42.666;23.344;2023-02-18T12:58:46;95065.22;;;21.61;27.80
3178;BME280;38141;42.666;23.344;2023-02-18T13:01:29;95041.34;;;21.46;27.62
3178;BME280;38141;42.666;23.344;2023-02-18T13:04:17;95057.06;;;21.70;28.33
3178;BME280;38141;42.666;23.344;2023-02-18T13:07:01;95044.13;;;21.08;28.72
3178;BME280;38141;42.666;23.344;2023-02-18T13:09:41;95080.13;;;21.26;28.75
3178;BME280;38141;42.666;23.344;2023-02-18T13:12:15;95056.56;;;21.12;28.70
3178;BME280;38141;42.666;23.344;2023-02-18T13:14:48;95066.25;;;20.92;28.95
3178;BME280;38141;42.666;23.344;2023-02-18T13:17:24;95062.06;;;20.62;29.05
3178;BME280;38141;42.666;23.344;2023-02-18T13:19:56;95050.16;;;20.52;29.07
3178;BME280;38141;42.666;23.344;2023-02-18T13:22:26;95062.16;;;20.58;28.68
3178;BME280;38141;42.666;23.344;2023-02-18T13:24:56;95056.34;;;20.69;28.75
3178;BME280;38141;42.666;23.344;2023-02-18T13:27:28;95055.19;;;20.41;28.81
3178;BME280;38141;42.666;23.344;2023-02-18T13:30:15;95041.19;;;19.49;29.69